CheckWX is a tool to help pilots better visualize weather data.  It is not intended as a substitute for an official pre-flight weather briefing.

07:03:37 UTC

KPDK TAF
Dekalb-Peachtree Airport
Atlanta, Georgia, USA
KPDK 190520Z 1906/2006 VRB03KT P6SM VCSH FEW008 SCT060 TEMPO 1907/1910 BKN008 FM191000 24003KT 6SM BR VCSH OVC008 FM191400 26005KT P6SM VCSH BKN015 FM191800 25006KT P6SM VCSH BKN035 BKN100 FM192000 25008KT P6SM VCSH SCT040 PROB30 1920/1923 4SM TSRA BKN035CB BKN060

Jun-19@
06:00 UTC

Jun-19 @ 06:00 UTC

Jun-19@
10:00 UTC

Jun-19 @ 10:00 UTC

KPDK 190520Z 1906/2006 VRB03KT P6SM VCSH FEW008 SCT060
Wind
  • Variable at 3 KTS
Cloud Levels
  • Few at 800' AGL
  • Scattered at 6,000' AGL

Jun-19@
07:00 UTC

Jun-19 @ 07:00 UTC

Jun-19@
10:00 UTC

Jun-19 @ 10:00 UTC

TEMPO 1907/1910 BKN008

Temporary

Temporary Changes expected for less than half the time period

Cloud Levels
  • Broken at 800' AGL

Jun-19@
10:00 UTC

Jun-19 @ 10:00 UTC

Jun-19@
14:00 UTC

Jun-19 @ 14:00 UTC

FM191000 24003KT 6SM BR VCSH OVC008

From

From Standard forecast or significant change

Wind
  • 240° at 3 KTS
Conditions
Mist
Cloud Levels
  • Overcast at 800' AGL

Jun-19@
14:00 UTC

Jun-19 @ 14:00 UTC

Jun-19@
18:00 UTC

Jun-19 @ 18:00 UTC

FM191400 26005KT P6SM VCSH BKN015

From

From Standard forecast or significant change

Wind
  • 260° at 5 KTS
Cloud Levels
  • Broken at 1,500' AGL

Jun-19@
18:00 UTC

Jun-19 @ 18:00 UTC

Jun-19@
20:00 UTC

Jun-19 @ 20:00 UTC

FM191800 25006KT P6SM VCSH BKN035 BKN100

From

From Standard forecast or significant change

Wind
  • 250° at 6 KTS
Cloud Levels
  • Broken at 3,500' AGL
  • Broken at 10,000' AGL

Jun-19@
20:00 UTC

Jun-19 @ 20:00 UTC

Jun-19@
23:00 UTC

Jun-19 @ 23:00 UTC

PROB30 1920/1923 4SM TSRA BKN035CB BKN060

Probable - 30% Likelihood

Probable - 30% Likelihood during this time.

Conditions
Thunderstorm, Rain
Cloud Levels
  • Broken at 3,500' AGL
  • Broken at 6,000' AGL

Jun-19@
20:00 UTC

Jun-19 @ 20:00 UTC

Jun-20@
06:00 UTC

Jun-20 @ 06:00 UTC

FM192000 25008KT P6SM VCSH SCT040

From

From Standard forecast or significant change

Wind
  • 250° at 8 KTS
Cloud Levels
  • Scattered at 4,000' AGL